createdAt,value
2018-07-13T00:00:12.621Z,11.97
2018-07-13T00:02:42.169Z,12.50
2018-07-13T00:05:10.977Z,12.70
2018-07-13T00:07:39.642Z,13.83
2018-07-13T00:10:08.541Z,12.00
2018-07-13T00:12:37.049Z,14.27
2018-07-13T00:15:09.974Z,15.70
2018-07-13T00:17:38.508Z,15.20
2018-07-13T00:20:07.592Z,12.30
2018-07-13T00:22:36.048Z,12.70
2018-07-13T00:25:05.327Z,14.00
2018-07-13T00:27:33.989Z,12.93
2018-07-13T00:30:02.464Z,12.60
2018-07-13T00:32:31.577Z,13.47
2018-07-13T00:35:00.213Z,13.27
2018-07-13T00:37:28.733Z,12.87
2018-07-13T00:39:57.952Z,14.13
2018-07-13T00:42:26.773Z,13.40
2018-07-13T00:44:55.261Z,14.00
2018-07-13T00:47:23.997Z,16.27
2018-07-13T00:49:52.821Z,14.57
2018-07-13T00:52:21.295Z,12.33
2018-07-13T00:54:49.829Z,13.23
2018-07-13T00:57:18.574Z,12.80
2018-07-13T00:59:47.321Z,12.67
2018-07-13T01:02:15.921Z,12.90
2018-07-13T01:04:44.633Z,12.53
2018-07-13T01:07:13.343Z,13.33
2018-07-13T01:09:42.182Z,15.27
2018-07-13T01:12:10.637Z,13.80
2018-07-13T01:14:39.369Z,12.50
2018-07-13T01:17:08.233Z,13.37
2018-07-13T01:19:36.709Z,14.00
2018-07-13T01:22:05.604Z,13.97
2018-07-13T01:24:34.290Z,13.70
2018-07-13T01:27:02.737Z,13.63
2018-07-13T01:29:31.714Z,13.43
2018-07-13T01:32:00.485Z,14.03
2018-07-13T01:34:28.937Z,14.70
2018-07-13T01:36:57.666Z,14.40
2018-07-13T01:39:26.125Z,14.53
2018-07-13T01:41:54.578Z,14.50
2018-07-13T01:44:23.073Z,14.53
2018-07-13T01:46:51.541Z,15.77
2018-07-13T01:49:20.354Z,14.27
2018-07-13T01:51:48.837Z,15.17
2018-07-13T01:54:17.573Z,15.03
2018-07-13T01:56:46.145Z,14.63
2018-07-13T01:59:14.646Z,15.43
2018-07-13T02:01:43.109Z,13.67
2018-07-13T02:04:11.582Z,13.73
2018-07-13T02:06:40.278Z,13.50
2018-07-13T02:09:09.686Z,14.33
2018-07-13T02:11:38.154Z,14.77
2018-07-13T02:14:07.117Z,13.87
2018-07-13T02:16:35.849Z,14.80
2018-07-13T02:19:04.321Z,15.07
2018-07-13T02:21:32.819Z,14.97
2018-07-13T02:24:01.822Z,14.03
2018-07-13T02:26:30.342Z,15.13
2018-07-13T02:28:58.810Z,15.60
2018-07-13T02:31:28.563Z,15.13
2018-07-13T02:33:57.180Z,14.90
2018-07-13T02:36:25.673Z,14.40
2018-07-13T02:38:54.817Z,15.13
2018-07-13T02:41:23.675Z,15.93
2018-07-13T02:43:52.353Z,14.00
2018-07-13T02:46:20.909Z,14.20
2018-07-13T02:48:49.784Z,13.67
2018-07-13T02:51:18.249Z,13.73
2018-07-13T02:53:46.678Z,13.30
2018-07-13T02:56:15.465Z,13.93
2018-07-13T02:58:44.246Z,13.43
2018-07-13T03:01:13.009Z,14.20
2018-07-13T03:03:41.495Z,12.90
2018-07-13T03:06:10.082Z,13.17
2018-07-13T03:08:38.755Z,14.00
2018-07-13T03:11:07.578Z,14.43
2018-07-13T03:13:36.809Z,13.13
2018-07-13T03:16:06.038Z,12.00
2018-07-13T03:18:34.681Z,12.33
2018-07-13T03:21:03.189Z,11.50
2018-07-13T03:23:32.104Z,12.17
2018-07-13T03:26:00.588Z,12.73
2018-07-13T03:28:29.110Z,12.07
2018-07-13T03:30:58.650Z,11.43
2018-07-13T03:33:27.305Z,11.50
2018-07-13T03:35:55.803Z,12.07
2018-07-13T03:38:24.888Z,12.20
2018-07-13T03:40:54.386Z,12.63
2018-07-13T03:43:22.873Z,12.43
2018-07-13T03:45:51.861Z,14.27
2018-07-13T03:48:20.685Z,11.60
2018-07-13T03:50:49.145Z,11.87
2018-07-13T03:53:17.858Z,11.33
2018-07-13T03:55:46.708Z,10.93
2018-07-13T03:58:15.258Z,10.67
2018-07-13T04:00:44.004Z,11.90
2018-07-13T04:03:13.006Z,10.73
2018-07-13T04:05:41.775Z,10.27
2018-07-13T04:08:10.581Z,10.47
2018-07-13T04:10:46.037Z,13.80
2018-07-13T04:13:14.709Z,10.07
2018-07-13T04:15:43.796Z,11.60
2018-07-13T04:18:18.665Z,11.40
2018-07-13T04:20:47.614Z,10.27
2018-07-13T04:23:16.514Z,10.73
2018-07-13T04:25:45.063Z,12.10
2018-07-13T04:28:14.702Z,12.07
2018-07-13T04:30:43.932Z,12.10
2018-07-13T04:33:12.835Z,10.30
2018-07-13T04:35:41.341Z,10.47
2018-07-13T04:38:10.758Z,10.17
2018-07-13T04:40:39.262Z,11.73
2018-07-13T04:43:08.098Z,10.10
2018-07-13T04:45:37.442Z,8.53
2018-07-13T04:48:06.209Z,9.27
2018-07-13T04:50:35.012Z,9.20
2018-07-13T04:53:04.420Z,10.77
2018-07-13T04:55:33.942Z,9.83
2018-07-13T04:58:02.478Z,8.90
2018-07-13T05:00:31.466Z,9.60
2018-07-13T05:03:00.412Z,8.47
2018-07-13T05:05:28.938Z,7.87
2018-07-13T05:07:57.863Z,8.97
2018-07-13T05:10:26.629Z,8.30
2018-07-13T05:12:55.286Z,7.20
2018-07-13T05:15:24.133Z,7.50
2018-07-13T05:17:52.629Z,7.30
2018-07-13T05:20:21.420Z,8.43
2018-07-13T05:22:50.508Z,9.00
2018-07-13T05:25:19.077Z,9.30
2018-07-13T05:27:47.771Z,8.80
2018-07-13T05:30:16.917Z,9.20
2018-07-13T05:32:45.481Z,7.33
2018-07-13T05:35:14.014Z,7.77
2018-07-13T05:37:43.256Z,7.30
2018-07-13T05:40:11.833Z,8.87
2018-07-13T05:42:40.540Z,7.33
2018-07-13T05:45:09.495Z,8.97
2018-07-13T05:47:38.499Z,7.93
2018-07-13T05:50:07.145Z,9.27
2018-07-13T05:52:35.949Z,11.03
2018-07-13T05:55:04.898Z,8.27
2018-07-13T05:57:33.438Z,7.80
2018-07-13T06:00:02.309Z,6.43
2018-07-13T06:02:31.537Z,6.10
2018-07-13T06:05:00.552Z,6.20
2018-07-13T06:07:29.701Z,6.60
2018-07-13T06:09:58.309Z,15.53
2018-07-13T06:12:27.181Z,6.57
2018-07-13T06:14:56.076Z,8.83
2018-07-13T06:17:24.557Z,5.30
2018-07-13T06:19:53.441Z,7.73
2018-07-13T06:22:22.025Z,5.87
2018-07-13T06:24:50.537Z,5.60
2018-07-13T06:27:19.196Z,5.57
2018-07-13T06:29:47.806Z,5.57
2018-07-13T06:32:16.277Z,4.53
2018-07-13T06:34:45.050Z,4.67
2018-07-13T06:37:14.746Z,5.53
2018-07-13T06:39:44.065Z,5.27
2018-07-13T06:42:13.301Z,5.73
2018-07-13T06:44:42.097Z,6.60
2018-07-13T06:47:10.674Z,7.00
2018-07-13T06:49:39.257Z,4.83
2018-07-13T06:52:07.893Z,6.33
2018-07-13T06:54:36.659Z,8.43
2018-07-13T06:57:05.919Z,3.47
2018-07-13T06:59:34.773Z,9.83
2018-07-13T07:02:03.470Z,7.92
2018-07-13T07:04:34.699Z,5.45
2018-07-13T07:07:05.947Z,6.42
2018-07-13T07:09:34.665Z,9.03
2018-07-13T07:13:13.676Z,4.92
2018-07-13T07:15:42.465Z,4.85
2018-07-13T07:18:11.692Z,5.85
2018-07-13T07:20:40.449Z,4.70
2018-07-13T07:23:08.950Z,12.50
2018-07-13T07:25:37.442Z,4.30
2018-07-13T07:28:05.929Z,4.72
2018-07-13T07:30:34.467Z,6.80
2018-07-13T07:33:02.958Z,4.20
2018-07-13T07:35:31.469Z,4.17
2018-07-13T07:38:00.137Z,3.98
2018-07-13T07:40:28.671Z,4.45
2018-07-13T07:42:57.783Z,7.83
2018-07-13T07:45:26.597Z,6.67
2018-07-13T07:47:55.295Z,5.92
2018-07-13T07:50:24.006Z,4.30
2018-07-13T07:52:52.878Z,4.10
2018-07-13T07:55:21.590Z,4.15
2018-07-13T07:57:50.451Z,5.20
2018-07-13T08:00:18.945Z,5.08
2018-07-13T08:02:47.883Z,3.75
2018-07-13T08:05:17.201Z,3.70
2018-07-13T08:07:45.654Z,4.00
2018-07-13T08:10:14.389Z,3.55
2018-07-13T08:12:44.289Z,3.80
2018-07-13T08:15:12.751Z,3.95
2018-07-13T08:17:41.469Z,4.90
2018-07-13T08:20:10.442Z,4.87
2018-07-13T08:22:42.027Z,4.12
2018-07-13T08:25:13.717Z,3.70
2018-07-13T08:27:44.109Z,5.75
2018-07-13T08:30:17.665Z,4.10
2018-07-13T08:32:46.382Z,3.72
2018-07-13T08:35:14.934Z,3.37
2018-07-13T08:37:43.705Z,3.72
2018-07-13T08:40:12.782Z,3.10
2018-07-13T08:42:42.194Z,3.20
2018-07-13T08:45:11.509Z,3.10
2018-07-13T08:47:40.169Z,3.33
2018-07-13T08:50:09.085Z,3.72
2018-07-13T08:52:38.219Z,2.90
2018-07-13T08:55:08.486Z,3.27
2018-07-13T08:57:37.069Z,2.90
2018-07-13T09:00:06.115Z,4.03
2018-07-13T09:02:35.270Z,3.30
2018-07-13T09:05:03.802Z,4.62
2018-07-13T09:07:34.533Z,3.52
2018-07-13T09:10:03.367Z,3.83
2018-07-13T09:12:31.860Z,4.22
2018-07-13T09:15:00.647Z,3.75
2018-07-13T09:17:29.360Z,3.62
2018-07-13T09:19:58.365Z,3.08
2018-07-13T09:22:27.363Z,3.47
2018-07-13T09:24:55.889Z,3.30
2018-07-13T09:27:24.717Z,3.02
2018-07-13T09:29:53.601Z,3.10
2018-07-13T09:32:22.037Z,3.50
2018-07-13T09:34:50.526Z,3.47
2018-07-13T09:37:20.322Z,3.50
2018-07-13T09:39:49.090Z,4.45
2018-07-13T09:42:17.721Z,4.53
2018-07-13T09:44:46.921Z,4.72
2018-07-13T09:47:16.099Z,3.15
2018-07-13T09:49:44.565Z,3.62
2018-07-13T09:52:14.819Z,3.40
2018-07-13T09:54:43.616Z,4.25
2018-07-13T09:57:13.003Z,3.10
2018-07-13T09:59:42.419Z,5.78
2018-07-13T10:02:11.275Z,4.45
2018-07-13T10:04:39.837Z,3.22
2018-07-13T10:07:09.596Z,3.12
2018-07-13T10:09:38.286Z,3.22
2018-07-13T10:12:07.210Z,4.55
2018-07-13T10:14:36.159Z,3.05
2018-07-13T10:17:04.928Z,3.20
2018-07-13T10:19:33.930Z,5.85
2018-07-13T10:22:02.713Z,3.00
2018-07-13T10:24:32.375Z,3.37
2018-07-13T10:27:01.217Z,2.85
2018-07-13T10:29:33.146Z,5.55
2018-07-13T10:32:02.880Z,2.95
2018-07-13T10:34:32.203Z,4.05
2018-07-13T10:37:03.190Z,3.00
2018-07-13T10:39:32.534Z,3.08
2018-07-13T10:42:01.202Z,4.17
2018-07-13T10:44:30.036Z,3.58
2018-07-13T10:46:58.590Z,8.23
2018-07-13T10:49:27.325Z,3.30
2018-07-13T10:51:56.792Z,3.40
2018-07-13T10:54:25.424Z,4.47
2018-07-13T10:56:53.884Z,5.17
2018-07-13T10:59:22.945Z,3.30
2018-07-13T11:01:51.682Z,3.37
2018-07-13T11:04:20.349Z,3.35
2018-07-13T11:06:48.849Z,4.25
2018-07-13T11:09:17.710Z,4.90
2018-07-13T11:11:46.990Z,4.25
2018-07-13T11:14:15.730Z,3.75
2018-07-13T11:16:44.363Z,4.62
2018-07-13T11:19:13.094Z,4.72
2018-07-13T11:21:42.955Z,2.60
2018-07-13T11:24:11.763Z,3.33
2018-07-13T11:26:40.453Z,3.00
2018-07-13T11:29:09.231Z,3.25
2018-07-13T11:31:38.352Z,3.20
2018-07-13T11:34:07.045Z,3.20
2018-07-13T11:36:36.197Z,3.15
2018-07-13T11:39:05.583Z,4.85
2018-07-13T11:41:34.294Z,4.17
2018-07-13T11:44:02.986Z,3.17
2018-07-13T11:46:32.253Z,2.90
2018-07-13T11:49:01.269Z,4.83
2018-07-13T11:51:30.179Z,2.77
2018-07-13T11:53:58.831Z,2.72
2018-07-13T11:56:27.828Z,2.52
2018-07-13T11:58:56.536Z,2.52
2018-07-13T12:01:25.001Z,3.05
2018-07-13T12:03:53.702Z,4.00
2018-07-13T12:06:22.670Z,3.85
2018-07-13T12:08:51.149Z,3.22
2018-07-13T12:11:19.798Z,2.60
2018-07-13T12:13:49.049Z,5.83
2018-07-13T12:16:17.495Z,5.33
2018-07-13T12:18:46.242Z,8.20
2018-07-13T12:21:14.998Z,3.47
2018-07-13T12:23:43.463Z,4.15
2018-07-13T12:26:12.621Z,3.72
2018-07-13T12:28:41.685Z,3.45
2018-07-13T12:31:10.137Z,5.28
2018-07-13T12:33:38.822Z,3.77
2018-07-13T12:36:07.717Z,3.98
2018-07-13T12:38:36.159Z,3.15
2018-07-13T12:41:05.060Z,3.20
2018-07-13T12:43:34.689Z,3.27
2018-07-13T12:46:03.162Z,3.65
2018-07-13T12:48:31.752Z,4.35
2018-07-13T12:51:00.445Z,3.15
2018-07-13T12:53:29.247Z,3.45
2018-07-13T12:55:57.693Z,2.77
2018-07-13T12:58:27.362Z,3.08
2018-07-13T13:00:56.232Z,4.85
2018-07-13T13:03:24.750Z,3.10
2018-07-13T13:05:53.575Z,3.08
2018-07-13T13:08:22.298Z,3.85
2018-07-13T13:10:51.000Z,3.17
2018-07-13T13:13:19.869Z,4.28
2018-07-13T13:15:48.993Z,4.10
2018-07-13T13:18:17.690Z,4.17
2018-07-13T13:20:46.646Z,3.58
2018-07-13T13:23:15.087Z,3.45
2018-07-13T13:25:45.110Z,3.10
2018-07-13T13:28:14.434Z,3.30
2018-07-13T13:30:43.545Z,3.37
2018-07-13T13:33:11.971Z,2.80
2018-07-13T13:35:42.072Z,2.77
2018-07-13T13:38:10.522Z,4.55
2018-07-13T13:40:39.067Z,4.05
2018-07-13T13:43:08.091Z,3.95
2018-07-13T13:45:36.573Z,2.58
2018-07-13T13:48:05.093Z,3.35
2018-07-13T13:50:34.153Z,3.25
2018-07-13T13:53:02.596Z,3.35
2018-07-13T13:55:31.048Z,3.02
2018-07-13T13:57:59.888Z,3.12
2018-07-13T14:00:28.853Z,3.65
2018-07-13T14:02:57.307Z,4.53
2018-07-13T14:05:26.322Z,5.90
2018-07-13T14:07:55.032Z,2.83
2018-07-13T14:10:23.465Z,2.58
2018-07-13T14:12:51.966Z,4.05
2018-07-13T14:15:20.808Z,2.35
2018-07-13T14:17:49.506Z,2.80
2018-07-13T14:20:17.995Z,3.20
2018-07-13T14:22:46.846Z,4.35
2018-07-13T14:25:15.286Z,2.50
2018-07-13T14:27:44.117Z,4.45
2018-07-13T14:30:12.987Z,3.10
2018-07-13T14:32:42.753Z,2.27
2018-07-13T14:35:11.705Z,4.75
2018-07-13T14:37:40.131Z,3.17
2018-07-13T14:40:08.867Z,2.50
2018-07-13T14:42:37.769Z,3.35
2018-07-13T14:45:06.289Z,3.40
2018-07-13T14:47:34.957Z,2.30
2018-07-13T14:50:03.797Z,2.62
2018-07-13T14:52:32.232Z,3.08
2018-07-13T14:55:00.965Z,2.17
2018-07-13T14:57:29.946Z,4.53
2018-07-13T14:59:58.479Z,1.75
2018-07-13T15:02:27.461Z,1.80
2018-07-13T15:04:57.140Z,1.60
2018-07-13T15:07:25.585Z,4.17
2018-07-13T15:09:54.025Z,2.17
2018-07-13T15:12:22.939Z,2.52
2018-07-13T15:14:51.469Z,1.70
2018-07-13T15:17:19.957Z,2.65
2018-07-13T15:19:49.238Z,2.27
2018-07-13T15:22:17.673Z,2.08
2018-07-13T15:24:46.668Z,1.90
2018-07-13T15:27:15.724Z,3.65
2018-07-13T15:29:44.165Z,1.90
2018-07-13T15:32:12.660Z,2.15
2018-07-13T15:34:41.693Z,2.67
2018-07-13T15:37:10.160Z,1.52
2018-07-13T15:39:38.598Z,2.10
2018-07-13T15:42:07.919Z,3.30
2018-07-13T15:44:36.754Z,3.02
2018-07-13T15:47:05.658Z,2.72
2018-07-13T15:49:34.709Z,3.27
2018-07-13T15:52:03.540Z,1.80
2018-07-13T15:54:32.009Z,1.50
2018-07-13T15:57:01.086Z,2.42
2018-07-13T15:59:29.832Z,1.72
2018-07-13T16:01:58.549Z,1.77
2018-07-13T16:04:27.362Z,3.62
2018-07-13T16:06:55.826Z,4.42
2018-07-13T16:09:24.601Z,3.70
2018-07-13T16:11:53.504Z,2.22
2018-07-13T16:14:21.956Z,1.70
2018-07-13T16:16:50.973Z,2.08
2018-07-13T16:19:19.557Z,1.92
2018-07-13T16:21:48.212Z,2.33
2018-07-13T16:24:16.670Z,3.42
2018-07-13T16:26:45.594Z,2.37
2018-07-13T16:29:14.026Z,3.17
2018-07-13T16:31:42.731Z,2.17
2018-07-13T16:34:11.653Z,2.87
2018-07-13T16:36:40.622Z,2.50
2018-07-13T16:39:09.157Z,2.60
2018-07-13T16:41:38.337Z,3.35
2018-07-13T16:44:07.131Z,3.55
2018-07-13T16:46:35.610Z,3.87
2018-07-13T16:49:04.414Z,2.67
2018-07-13T16:51:32.870Z,5.50
2018-07-13T16:54:01.309Z,3.33
2018-07-13T16:56:30.228Z,2.70
2018-07-13T16:59:00.039Z,4.85
2018-07-13T17:01:29.175Z,3.00
2018-07-13T17:03:58.145Z,3.45
2018-07-13T17:06:26.959Z,3.25
2018-07-13T17:08:56.076Z,4.17
2018-07-13T17:11:24.809Z,2.83
2018-07-13T17:13:53.229Z,2.77
2018-07-13T17:16:21.865Z,3.27
2018-07-13T17:18:50.861Z,3.25
2018-07-13T17:21:19.318Z,2.77
2018-07-13T17:23:47.907Z,4.72
2018-07-13T17:26:16.968Z,1.98
2018-07-13T17:28:45.382Z,2.75
2018-07-13T17:31:13.857Z,2.80
2018-07-13T17:33:43.818Z,3.05
2018-07-13T17:36:12.599Z,3.22
2018-07-13T17:38:41.032Z,4.22
2018-07-13T17:41:09.958Z,4.08
2018-07-13T17:43:38.487Z,3.65
2018-07-13T17:46:07.158Z,3.22
2018-07-13T17:48:36.042Z,4.67
2018-07-13T17:51:04.488Z,2.85
2018-07-13T17:53:32.977Z,6.03
2018-07-13T17:56:01.973Z,3.98
2018-07-13T17:58:30.413Z,3.42
2018-07-13T18:00:58.994Z,5.10
2018-07-13T18:03:28.197Z,2.85
2018-07-13T18:05:57.121Z,2.65
2018-07-13T18:08:25.926Z,3.60
2018-07-13T18:10:54.695Z,3.50
2018-07-13T18:13:23.529Z,2.67
2018-07-13T18:15:51.988Z,3.42
2018-07-13T18:18:21.058Z,4.75
2018-07-13T18:20:49.829Z,4.42
2018-07-13T18:23:18.852Z,2.98
2018-07-13T18:25:47.713Z,2.87
2018-07-13T18:28:16.333Z,2.70
2018-07-13T18:30:45.205Z,4.53
2018-07-13T18:33:14.095Z,2.95
2018-07-13T18:35:43.438Z,2.60
2018-07-13T18:38:12.490Z,2.40
2018-07-13T18:40:41.294Z,3.08
2018-07-13T18:43:10.086Z,4.35
2018-07-13T18:45:38.857Z,3.92
2018-07-13T18:48:07.753Z,5.12
2018-07-13T18:50:36.206Z,2.80
2018-07-13T18:53:05.388Z,2.47
2018-07-13T18:55:34.477Z,3.70
2018-07-13T18:58:02.917Z,2.45
2018-07-13T19:00:31.601Z,4.65
2018-07-13T19:03:00.477Z,3.50
2018-07-13T19:05:28.913Z,3.75
2018-07-13T19:07:57.949Z,3.05
2018-07-13T19:10:27.057Z,3.45
2018-07-13T19:12:55.501Z,3.50
2018-07-13T19:15:23.961Z,4.50
2018-07-13T19:17:52.742Z,3.60
2018-07-13T19:20:21.205Z,3.52
2018-07-13T19:22:49.716Z,3.37
2018-07-13T19:25:21.297Z,3.15
2018-07-13T19:27:50.172Z,5.00
2018-07-13T19:30:18.917Z,7.72
2018-07-13T19:32:47.380Z,4.30
2018-07-13T19:35:15.950Z,5.30
2018-07-13T19:37:44.653Z,3.33
2018-07-13T19:40:13.317Z,5.28
2018-07-13T19:42:41.851Z,5.10
2018-07-13T19:45:10.716Z,4.10
2018-07-13T19:47:39.337Z,4.12
2018-07-13T19:50:07.813Z,5.85
2018-07-13T19:52:36.887Z,3.50
2018-07-13T19:55:05.593Z,4.58
2018-07-13T19:57:34.057Z,3.52
2018-07-13T20:00:02.840Z,4.92
2018-07-13T20:02:31.653Z,4.95
2018-07-13T20:05:00.131Z,4.00
2018-07-13T20:07:28.874Z,5.20
2018-07-13T20:09:57.693Z,8.48
2018-07-13T20:12:26.341Z,3.42
2018-07-13T20:14:55.957Z,4.25
2018-07-13T20:17:24.991Z,5.85
2018-07-13T20:19:53.542Z,3.90
2018-07-13T20:22:22.006Z,4.95
2018-07-13T20:24:50.841Z,3.98
2018-07-13T20:27:19.313Z,8.28
2018-07-13T20:29:48.069Z,6.35
2018-07-13T20:32:17.212Z,8.60
2018-07-13T20:34:45.917Z,5.47
2018-07-13T20:37:14.642Z,4.60
2018-07-13T20:39:43.812Z,4.57
2018-07-13T20:42:12.354Z,10.27
2018-07-13T20:44:41.523Z,7.12
2018-07-13T20:47:10.004Z,6.50
2018-07-13T20:49:38.642Z,6.30
2018-07-13T20:52:07.363Z,5.40
2018-07-13T20:54:36.184Z,7.17
2018-07-13T20:57:04.685Z,5.07
2018-07-13T20:59:33.389Z,5.17
2018-07-13T21:02:01.937Z,5.80
2018-07-13T21:04:30.394Z,4.70
2018-07-13T21:06:59.161Z,6.13
2018-07-13T21:09:27.817Z,4.80
2018-07-13T21:11:56.307Z,4.67
2018-07-13T21:14:25.071Z,4.83
2018-07-13T21:16:53.518Z,6.97
2018-07-13T21:19:21.989Z,5.33
2018-07-13T21:21:50.976Z,4.33
2018-07-13T21:24:20.205Z,4.33
2018-07-13T21:26:49.237Z,9.30
2018-07-13T21:29:17.721Z,9.43
2018-07-13T21:31:46.500Z,6.67
2018-07-13T21:34:15.547Z,9.43
2018-07-13T21:36:44.057Z,5.03
2018-07-13T21:39:13.545Z,5.60
2018-07-13T21:41:42.575Z,6.93
2018-07-13T21:44:11.551Z,6.83
2018-07-13T21:46:40.425Z,6.30
2018-07-13T21:49:08.913Z,4.90
2018-07-13T21:51:37.679Z,6.37
2018-07-13T21:54:06.476Z,7.57
2018-07-13T21:56:34.946Z,6.23
2018-07-13T21:59:03.825Z,10.03
2018-07-13T22:01:32.531Z,8.20
2018-07-13T22:04:01.034Z,8.60
2018-07-13T22:06:30.281Z,10.40
2018-07-13T22:08:59.037Z,6.13
2018-07-13T22:11:27.519Z,5.63
2018-07-13T22:13:56.473Z,7.67
2018-07-13T22:16:25.830Z,4.67
2018-07-13T22:18:54.351Z,5.13
2018-07-13T22:21:22.877Z,5.87
2018-07-13T22:23:51.964Z,5.03
2018-07-13T22:26:20.440Z,5.87
2018-07-13T22:28:48.984Z,7.33
2018-07-13T22:31:17.681Z,5.13
2018-07-13T22:33:46.834Z,5.67
2018-07-13T22:36:16.134Z,6.17
2018-07-13T22:38:44.961Z,7.57
2018-07-13T22:41:14.353Z,5.33
2018-07-13T22:43:42.832Z,5.30
2018-07-13T22:46:11.409Z,5.37
2018-07-13T22:48:40.163Z,7.20
2018-07-13T22:51:08.715Z,9.93
2018-07-13T22:53:37.213Z,5.80
2018-07-13T22:56:06.165Z,6.73
2018-07-13T22:58:34.637Z,6.70
2018-07-13T23:01:03.739Z,6.83
2018-07-13T23:03:32.859Z,5.50
2018-07-13T23:06:02.641Z,5.40
2018-07-13T23:08:31.337Z,6.57
2018-07-13T23:11:00.297Z,5.70
2018-07-13T23:13:29.210Z,6.17
2018-07-13T23:15:58.769Z,6.50
2018-07-13T23:18:27.583Z,5.10
2018-07-13T23:20:56.456Z,6.13
2018-07-13T23:23:25.070Z,5.23
2018-07-13T23:25:53.577Z,4.67
2018-07-13T23:28:22.545Z,4.57
2018-07-13T23:30:51.199Z,3.93
2018-07-13T23:33:19.826Z,4.27
2018-07-13T23:35:49.211Z,5.37
2018-07-13T23:38:17.856Z,4.93
2018-07-13T23:40:46.336Z,6.37
2018-07-13T23:43:14.857Z,6.17
2018-07-13T23:45:44.069Z,4.43
2018-07-13T23:48:12.593Z,4.73
2018-07-13T23:50:41.085Z,5.23
2018-07-13T23:53:09.637Z,4.50
2018-07-13T23:55:38.368Z,5.27
2018-07-13T23:58:07.106Z,5.20
